Egypt, Mississippi
Current Conditions -  °F | °C
As of 3:35 AM on Saturday 20 Dec 2014 (Local Time) from KM40 Reporting Station
Haze Haze  
Wind Chill: 41°   Ceiling: 9000
Heat Index: 41°   Visibility: 6mi
Dew Point: 28°   Wind: 3mph
Humidity: 61%   Direction: 10°N
Pressure: 30.22"   Gusts: NA
Location:  33.9759°N, 88.8037°W
Report Text: KM40 200935Z AUTO 01003KT 6SM HZ BKN090 05/M02 A3022 RMK AO2
Loading
Personal Weather Stations






























Interactive Weather Map New forecast layout! Learn more

10-Day Weather Forecast

Advertisements
Track Severe Weather on mobile